createdAt,value
2022-08-14T00:03:40.663Z,26.53
2022-08-14T00:08:45.569Z,26.52
2022-08-14T00:13:53.024Z,26.47
2022-08-14T00:19:05.960Z,26.42
2022-08-14T00:24:22.903Z,26.32
2022-08-14T00:29:40.366Z,26.25
2022-08-14T00:34:47.244Z,26.21
2022-08-14T00:39:52.025Z,26.13
2022-08-14T00:44:57.084Z,26.13
2022-08-14T00:50:08.218Z,26.13
2022-08-14T00:55:21.861Z,26.07
2022-08-14T01:00:36.977Z,26.06
2022-08-14T01:06:07.211Z,26.02
2022-08-14T01:11:19.440Z,25.92
2022-08-14T01:16:27.381Z,25.80
2022-08-14T01:21:47.143Z,25.76
2022-08-14T01:26:56.288Z,25.64
2022-08-14T01:32:01.695Z,25.54
2022-08-14T01:37:10.757Z,25.60
2022-08-14T01:42:31.636Z,25.55
2022-08-14T01:47:38.837Z,25.52
2022-08-14T01:52:59.400Z,25.50
2022-08-14T01:58:18.716Z,25.44
2022-08-14T02:03:29.965Z,25.33
2022-08-14T02:08:37.871Z,25.41
2022-08-14T02:14:00.088Z,25.28
2022-08-14T02:19:13.554Z,25.35
2022-08-14T02:24:39.263Z,25.29
2022-08-14T02:29:59.510Z,25.30
2022-08-14T02:35:10.204Z,25.32
2022-08-14T02:40:15.593Z,25.26
2022-08-14T02:45:19.937Z,25.25
2022-08-14T02:50:27.182Z,25.28
2022-08-14T02:55:32.300Z,25.27
2022-08-14T03:00:40.062Z,25.18
2022-08-14T03:05:44.186Z,25.10
2022-08-14T03:10:50.392Z,25.07
2022-08-14T03:15:57.849Z,25.10
2022-08-14T03:21:03.626Z,24.97
2022-08-14T03:26:18.309Z,24.96
2022-08-14T03:31:33.323Z,24.98
2022-08-14T03:37:37.493Z,24.92
2022-08-14T03:42:02.085Z,24.82
2022-08-14T03:47:06.572Z,24.85
2022-08-14T03:52:17.989Z,24.92
2022-08-14T03:57:37.963Z,24.92
2022-08-14T04:02:47.039Z,24.82
2022-08-14T04:08:08.399Z,24.98
2022-08-14T04:13:18.284Z,25.02
2022-08-14T04:18:21.876Z,25.08
2022-08-14T04:23:31.867Z,25.18
2022-08-14T04:29:07.825Z,24.98
2022-08-14T04:34:05.119Z,24.92
2022-08-14T04:39:26.197Z,24.95
2022-08-14T04:44:36.825Z,24.98
2022-08-14T04:49:46.742Z,24.93
2022-08-14T04:55:01.248Z,25.01
2022-08-14T05:00:16.227Z,25.17
2022-08-14T05:05:24.871Z,25.33
2022-08-14T05:10:31.970Z,25.36
2022-08-14T05:15:39.465Z,25.43
2022-08-14T05:21:57.671Z,25.40
2022-08-14T05:26:18.162Z,25.57
2022-08-14T05:31:23.078Z,25.68
2022-08-14T05:36:34.801Z,25.79
2022-08-14T05:41:52.458Z,26.00
2022-08-14T05:46:58.887Z,26.34
2022-08-14T05:52:02.831Z,26.53
2022-08-14T05:57:06.864Z,26.60
2022-08-14T06:02:11.887Z,26.71
2022-08-14T06:07:16.206Z,26.75
2022-08-14T06:12:31.557Z,27.03
2022-08-14T06:17:58.636Z,27.33
2022-08-14T06:23:02.944Z,27.56
2022-08-14T06:28:06.760Z,27.79
2022-08-14T06:35:03.148Z,27.66
2022-08-14T06:38:55.682Z,28.06
2022-08-14T06:43:59.206Z,28.14
2022-08-14T06:49:04.108Z,28.48
2022-08-14T06:54:09.309Z,28.83
2022-08-14T06:59:19.622Z,28.85
2022-08-14T07:04:42.363Z,28.94
2022-08-14T07:09:51.188Z,29.09
2022-08-14T07:15:01.031Z,29.40
2022-08-14T07:20:07.600Z,29.60
2022-08-14T07:25:11.467Z,29.83
2022-08-14T07:30:34.536Z,30.32
2022-08-14T07:35:57.643Z,30.43
2022-08-14T07:41:06.831Z,30.62
2022-08-14T07:46:16.220Z,30.90
2022-08-14T07:51:34.351Z,30.99
2022-08-14T07:56:47.835Z,31.20
2022-08-14T08:01:53.483Z,31.18
2022-08-14T08:07:11.435Z,31.63
2022-08-14T08:12:15.859Z,32.01
2022-08-14T08:17:20.339Z,31.95
2022-08-14T08:22:27.263Z,32.08
2022-08-14T08:27:30.958Z,32.05
2022-08-14T08:32:40.114Z,32.09
2022-08-14T08:37:45.241Z,32.09
2022-08-14T08:42:53.209Z,32.12
2022-08-14T08:47:57.862Z,33.02
2022-08-14T08:53:05.131Z,33.25
2022-08-14T08:58:20.277Z,32.96
2022-08-14T09:03:32.181Z,32.83
2022-08-14T09:08:38.421Z,33.61
2022-08-14T09:13:42.043Z,33.58
2022-08-14T09:18:46.218Z,34.08
2022-08-14T09:24:29.290Z,34.23
2022-08-14T09:29:16.739Z,34.38
2022-08-14T09:34:27.953Z,34.22
2022-08-14T09:39:53.585Z,35.01
2022-08-14T09:45:15.153Z,34.88
2022-08-14T09:50:26.063Z,35.45
2022-08-14T09:55:42.398Z,35.53
2022-08-14T10:00:48.615Z,35.65
2022-08-14T10:06:13.129Z,35.71
2022-08-14T10:11:25.646Z,35.63
2022-08-14T10:16:44.181Z,35.68
2022-08-14T10:23:14.195Z,35.90
2022-08-14T10:27:27.019Z,36.45
2022-08-14T10:32:40.141Z,36.93
2022-08-14T10:37:54.298Z,37.46
2022-08-14T10:43:02.647Z,37.58
2022-08-14T10:48:24.522Z,37.84
2022-08-14T10:53:40.396Z,37.97
2022-08-14T10:58:50.650Z,37.55
2022-08-14T11:03:57.300Z,37.88
2022-08-14T11:09:00.833Z,38.21
2022-08-14T11:14:09.441Z,37.93
2022-08-14T11:19:13.277Z,38.33
2022-08-14T11:24:54.119Z,38.88
2022-08-14T11:29:44.464Z,38.83
2022-08-14T11:34:48.028Z,39.05
2022-08-14T11:39:51.826Z,38.93
2022-08-14T11:45:01.628Z,39.64
2022-08-14T11:50:13.800Z,39.27
2022-08-14T11:55:35.286Z,39.46
2022-08-14T12:00:49.445Z,40.06
2022-08-14T12:05:52.831Z,40.41
2022-08-14T12:10:58.586Z,40.38
2022-08-14T12:16:11.178Z,40.64
2022-08-14T12:21:25.809Z,40.16
2022-08-14T12:26:40.347Z,40.05
2022-08-14T12:31:47.305Z,40.56
2022-08-14T12:37:05.558Z,40.11
2022-08-14T12:42:11.601Z,40.21
2022-08-14T12:47:32.480Z,40.74
2022-08-14T12:52:47.332Z,40.33
2022-08-14T12:58:06.007Z,40.41
2022-08-14T13:03:30.802Z,40.52
2022-08-14T13:08:36.571Z,40.63
2022-08-14T13:13:50.535Z,40.91
2022-08-14T13:19:00.591Z,40.79
2022-08-14T13:24:06.963Z,40.58
2022-08-14T13:29:12.363Z,40.55
2022-08-14T13:34:18.976Z,40.12
2022-08-14T13:39:23.747Z,40.95
2022-08-14T13:44:28.668Z,40.94
2022-08-14T13:49:34.023Z,40.40
2022-08-14T13:54:37.593Z,39.96
2022-08-14T13:59:45.419Z,40.67
2022-08-14T14:04:50.297Z,40.08
2022-08-14T14:09:56.178Z,39.81
2022-08-14T14:15:05.225Z,39.53
2022-08-14T14:20:15.274Z,39.52
2022-08-14T14:25:45.704Z,39.15
2022-08-14T14:30:53.310Z,38.86
2022-08-14T14:36:01.769Z,38.75
2022-08-14T14:41:05.868Z,38.09
2022-08-14T14:46:10.238Z,38.57
2022-08-14T14:51:19.235Z,38.74
2022-08-14T14:56:47.471Z,38.57
2022-08-14T15:01:51.001Z,38.00
2022-08-14T15:06:56.096Z,37.97
2022-08-14T15:11:59.567Z,37.32
2022-08-14T15:17:03.267Z,38.11
2022-08-14T15:22:10.670Z,38.13
2022-08-14T15:27:14.327Z,38.09
2022-08-14T15:32:29.617Z,38.21
2022-08-14T15:37:37.106Z,38.30
2022-08-14T15:42:46.295Z,38.00
2022-08-14T15:47:51.668Z,37.83
2022-08-14T15:53:22.183Z,38.14
2022-08-14T15:58:27.162Z,38.24
2022-08-14T16:03:36.495Z,38.44
2022-08-14T16:08:46.435Z,38.86
2022-08-14T16:13:57.694Z,39.04
2022-08-14T16:19:03.129Z,39.40
2022-08-14T16:24:27.825Z,39.28
2022-08-14T16:29:32.808Z,38.73
2022-08-14T16:34:44.397Z,38.82
2022-08-14T16:39:54.041Z,38.60
2022-08-14T16:44:58.683Z,38.55
2022-08-14T16:50:08.346Z,38.33
2022-08-14T16:55:17.922Z,38.57
2022-08-14T17:00:33.079Z,37.91
2022-08-14T17:05:48.088Z,38.29
2022-08-14T17:11:10.237Z,37.98
2022-08-14T17:16:25.364Z,37.79
2022-08-14T17:21:31.613Z,37.68
2022-08-14T17:26:41.655Z,37.46
2022-08-14T17:31:58.000Z,37.34
2022-08-14T17:37:02.571Z,37.39
2022-08-14T17:42:13.436Z,36.95
2022-08-14T17:47:18.268Z,36.85
2022-08-14T17:52:35.853Z,36.87
2022-08-14T17:57:45.374Z,36.67
2022-08-14T18:02:51.221Z,36.47
2022-08-14T18:08:33.086Z,36.50
2022-08-14T18:13:50.393Z,36.10
2022-08-14T18:18:46.129Z,35.69
2022-08-14T18:23:51.946Z,35.54
2022-08-14T18:28:57.221Z,35.28
2022-08-14T18:34:11.825Z,35.00
2022-08-14T18:39:29.920Z,34.88
2022-08-14T18:45:12.315Z,34.62
2022-08-14T18:50:27.863Z,34.50
2022-08-14T18:55:54.457Z,34.29
2022-08-14T19:01:00.656Z,34.04
2022-08-14T19:06:05.966Z,34.07
2022-08-14T19:11:44.992Z,33.95
2022-08-14T19:16:55.518Z,33.68
2022-08-14T19:21:59.915Z,33.63
2022-08-14T19:27:19.345Z,33.49
2022-08-14T19:32:42.215Z,33.34
2022-08-14T19:37:52.554Z,33.04
2022-08-14T19:42:59.331Z,32.84
2022-08-14T19:48:05.153Z,33.01
2022-08-14T19:53:16.597Z,32.85
2022-08-14T19:58:27.851Z,32.74
2022-08-14T20:04:00.410Z,32.66
2022-08-14T20:11:03.251Z,32.43
2022-08-14T20:14:31.218Z,32.36
2022-08-14T20:19:37.617Z,32.24
2022-08-14T20:24:47.043Z,32.14
2022-08-14T20:30:29.782Z,31.92
2022-08-14T20:35:44.272Z,31.76
2022-08-14T20:40:51.480Z,31.75
2022-08-14T20:45:54.903Z,31.66
2022-08-14T20:51:20.394Z,31.58
2022-08-14T20:56:30.131Z,31.41
2022-08-14T21:01:38.430Z,31.45
2022-08-14T21:07:23.397Z,31.42
2022-08-14T21:12:06.070Z,31.32
2022-08-14T21:17:14.443Z,31.23
2022-08-14T21:22:18.454Z,31.15
2022-08-14T21:27:22.877Z,31.02
2022-08-14T21:32:50.619Z,30.87
2022-08-14T21:38:02.915Z,30.89
2022-08-14T21:43:07.337Z,30.82
2022-08-14T21:48:25.008Z,30.71
2022-08-14T21:53:32.697Z,30.68
2022-08-14T21:58:51.823Z,30.68
2022-08-14T22:03:59.888Z,30.69
2022-08-14T22:09:29.418Z,30.61
2022-08-14T22:14:43.356Z,30.55
2022-08-14T22:19:54.700Z,30.52
2022-08-14T22:25:01.016Z,30.37
2022-08-14T22:30:08.323Z,30.23
2022-08-14T22:35:17.372Z,30.11
2022-08-14T22:41:20.727Z,29.98
2022-08-14T22:45:55.158Z,29.90
2022-08-14T22:51:01.188Z,29.78
2022-08-14T22:56:07.212Z,29.55
2022-08-14T23:01:56.899Z,29.52
2022-08-14T23:07:02.736Z,29.38
2022-08-14T23:12:13.248Z,29.14
2022-08-14T23:17:39.616Z,29.09
2022-08-14T23:22:46.514Z,28.98
2022-08-14T23:28:03.898Z,28.87
2022-08-14T23:33:15.545Z,28.62
2022-08-14T23:38:30.406Z,28.45
2022-08-14T23:43:34.655Z,28.39
2022-08-14T23:48:40.275Z,28.24
2022-08-14T23:53:53.037Z,27.87
2022-08-14T23:58:56.572Z,28.00
